createdAt,value
2022-11-12T00:00:01.511Z,1036.83
2022-11-12T00:01:01.500Z,1036.79
2022-11-12T00:02:01.561Z,1036.79
2022-11-12T00:03:01.521Z,1036.82
2022-11-12T00:04:01.529Z,1036.8
2022-11-12T00:05:01.521Z,1036.82
2022-11-12T00:06:01.532Z,1036.85
2022-11-12T00:07:01.598Z,1036.79
2022-11-12T00:08:01.506Z,1036.84
2022-11-12T00:09:01.562Z,1036.84
2022-11-12T00:10:01.503Z,1036.85
2022-11-12T00:11:01.501Z,1036.82
2022-11-12T00:12:01.522Z,1036.83
2022-11-12T00:13:01.498Z,1036.8
2022-11-12T00:14:01.536Z,1036.79
2022-11-12T00:15:01.508Z,1036.8
2022-11-12T00:16:01.508Z,1036.82
2022-11-12T00:17:01.510Z,1036.79
2022-11-12T00:18:01.517Z,1036.76
2022-11-12T00:19:01.515Z,1036.79
2022-11-12T00:20:01.508Z,1036.78
2022-11-12T00:21:01.507Z,1036.77
2022-11-12T00:22:01.507Z,1036.74
2022-11-12T00:23:01.504Z,1036.75
2022-11-12T00:24:01.516Z,1036.77
2022-11-12T00:25:01.509Z,1036.77
2022-11-12T00:26:01.502Z,1036.76
2022-11-12T00:27:01.525Z,1036.75
2022-11-12T00:28:01.506Z,1036.77
2022-11-12T00:29:01.525Z,1036.8
2022-11-12T00:30:01.526Z,1036.8
2022-11-12T00:31:01.504Z,1036.8
2022-11-12T00:32:01.507Z,1036.79
2022-11-12T00:33:01.526Z,1036.83
2022-11-12T00:34:01.531Z,1036.8
2022-11-12T00:35:02.861Z,1036.8
2022-11-12T00:36:01.511Z,1036.86
2022-11-12T00:37:01.515Z,1036.79
2022-11-12T00:38:01.523Z,1036.84
2022-11-12T00:39:01.552Z,1036.85
2022-11-12T00:40:01.546Z,1036.87
2022-11-12T00:41:01.529Z,1036.85
2022-11-12T00:42:01.537Z,1036.86
2022-11-12T00:43:01.526Z,1036.91
2022-11-12T00:44:01.539Z,1036.88
2022-11-12T00:45:01.526Z,1036.91
2022-11-12T00:46:01.524Z,1036.89
2022-11-12T00:47:01.523Z,1036.89
2022-11-12T00:48:01.517Z,1036.89
2022-11-12T00:49:01.543Z,1036.9
2022-11-12T00:50:01.521Z,1036.9
2022-11-12T00:51:01.522Z,1036.88
2022-11-12T00:52:01.522Z,1036.91
2022-11-12T00:53:01.530Z,1036.92
2022-11-12T00:54:01.636Z,1036.89
2022-11-12T00:55:01.525Z,1036.88
2022-11-12T00:56:01.521Z,1036.9
2022-11-12T00:57:01.639Z,1036.93
2022-11-12T00:58:01.519Z,1036.91
2022-11-12T00:59:01.534Z,1036.92
2022-11-12T01:00:01.512Z,1036.91
2022-11-12T01:01:01.563Z,1036.91
2022-11-12T01:02:01.523Z,1036.92
2022-11-12T01:03:01.513Z,1036.96
2022-11-12T01:04:01.591Z,1036.95
2022-11-12T01:05:01.516Z,1036.95
2022-11-12T01:06:01.525Z,1036.95
2022-11-12T01:07:01.606Z,1036.96
2022-11-12T01:08:01.520Z,1036.96
2022-11-12T01:09:01.541Z,1036.96
2022-11-12T01:10:01.522Z,1036.94
2022-11-12T01:11:01.524Z,1036.96
2022-11-12T01:12:01.537Z,1036.94
2022-11-12T01:13:01.528Z,1037
2022-11-12T01:14:01.526Z,1037
2022-11-12T01:15:01.521Z,1037.01
2022-11-12T01:16:01.532Z,1037.02
2022-11-12T01:17:01.517Z,1037.02
2022-11-12T01:18:01.524Z,1037.02
2022-11-12T01:19:01.579Z,1037.01
2022-11-12T01:20:01.527Z,1036.99
2022-11-12T01:21:01.526Z,1036.96
2022-11-12T01:22:01.616Z,1036.96
2022-11-12T01:23:01.508Z,1036.92
2022-11-12T01:24:01.517Z,1036.95
2022-11-12T01:25:01.508Z,1036.91
2022-11-12T01:26:01.515Z,1036.97
2022-11-12T01:27:01.523Z,1036.92
2022-11-12T01:28:01.506Z,1036.94
2022-11-12T01:29:01.519Z,1036.94
2022-11-12T01:30:01.510Z,1036.92
2022-11-12T01:31:01.511Z,1036.92
2022-11-12T01:32:01.501Z,1036.9
2022-11-12T01:33:01.508Z,1036.85
2022-11-12T01:34:01.523Z,1036.85
2022-11-12T01:35:01.524Z,1036.88
2022-11-12T01:36:01.509Z,1036.87
2022-11-12T01:37:01.503Z,1036.87
2022-11-12T01:38:01.507Z,1036.87
2022-11-12T01:39:01.520Z,1036.9
2022-11-12T01:40:01.509Z,1036.89
2022-11-12T01:41:01.504Z,1036.87
2022-11-12T01:42:01.522Z,1036.88
2022-11-12T01:43:01.507Z,1036.87
2022-11-12T01:44:01.513Z,1036.86
2022-11-12T01:45:01.501Z,1036.85
2022-11-12T01:46:01.508Z,1036.89
2022-11-12T01:47:01.512Z,1036.9
2022-11-12T01:48:01.532Z,1036.91
2022-11-12T01:49:01.528Z,1036.91
2022-11-12T01:50:01.532Z,1036.94
2022-11-12T01:51:01.522Z,1036.94
2022-11-12T01:52:01.522Z,1036.93
2022-11-12T01:53:01.528Z,1036.97
2022-11-12T01:54:01.531Z,1036.97
2022-11-12T01:55:01.561Z,1036.99
2022-11-12T01:56:01.545Z,1036.96
2022-11-12T01:57:01.543Z,1036.96
2022-11-12T01:58:01.528Z,1036.98
2022-11-12T01:59:01.537Z,1037
2022-11-12T02:00:01.523Z,1036.99
2022-11-12T02:01:01.553Z,1036.99
2022-11-12T02:02:01.519Z,1036.97
2022-11-12T02:03:01.525Z,1036.99
2022-11-12T02:04:01.540Z,1036.99
2022-11-12T02:05:01.525Z,1036.98
2022-11-12T02:06:01.525Z,1037.02
2022-11-12T02:07:01.601Z,1037
2022-11-12T02:08:01.519Z,1036.98
2022-11-12T02:09:07.333Z,1036.98
2022-11-12T02:10:01.515Z,1036.96
2022-11-12T02:11:01.525Z,1036.94
2022-11-12T02:12:01.530Z,1036.92
2022-11-12T02:13:01.510Z,1036.95
2022-11-12T02:14:01.605Z,1036.94
2022-11-12T02:15:01.518Z,1036.94
2022-11-12T02:16:01.519Z,1036.96
2022-11-12T02:17:01.518Z,1036.93
2022-11-12T02:18:01.515Z,1036.91
2022-11-12T02:19:01.525Z,1036.91
2022-11-12T02:20:01.540Z,1036.93
2022-11-12T02:21:01.514Z,1036.95
2022-11-12T02:22:01.533Z,1036.96
2022-11-12T02:23:01.510Z,1036.97
2022-11-12T02:24:01.524Z,1036.95
2022-11-12T02:25:01.522Z,1036.98
2022-11-12T02:26:01.507Z,1036.93
2022-11-12T02:27:01.512Z,1036.93
2022-11-12T02:28:01.524Z,1037
2022-11-12T02:29:01.512Z,1036.97
2022-11-12T02:30:01.522Z,1036.93
2022-11-12T02:31:01.557Z,1036.97
2022-11-12T02:32:01.514Z,1036.96
2022-11-12T02:33:01.516Z,1036.98
2022-11-12T02:34:01.513Z,1036.98
2022-11-12T02:35:01.527Z,1036.96
2022-11-12T02:36:01.512Z,1036.97
2022-11-12T02:37:01.513Z,1036.96
2022-11-12T02:38:01.518Z,1036.98
2022-11-12T02:39:01.506Z,1036.98
2022-11-12T02:40:01.525Z,1036.94
2022-11-12T02:41:01.494Z,1036.95
2022-11-12T02:42:01.527Z,1036.94
2022-11-12T02:43:01.494Z,1036.91
2022-11-12T02:44:01.499Z,1036.95
2022-11-12T02:45:01.523Z,1036.92
2022-11-12T02:46:01.493Z,1036.94
2022-11-12T02:47:01.514Z,1036.92
2022-11-12T02:48:01.515Z,1036.92
2022-11-12T02:49:01.495Z,1036.94
2022-11-12T02:50:01.517Z,1036.91
2022-11-12T02:51:01.510Z,1036.91
2022-11-12T02:52:01.509Z,1036.89
2022-11-12T02:53:01.500Z,1036.91
2022-11-12T02:54:01.491Z,1036.91
2022-11-12T02:55:01.513Z,1036.89
2022-11-12T02:56:01.518Z,1036.87
2022-11-12T02:57:01.516Z,1036.91
2022-11-12T02:58:01.498Z,1036.88
2022-11-12T02:59:01.507Z,1036.88
2022-11-12T03:00:01.519Z,1036.91
2022-11-12T03:01:01.566Z,1036.91
2022-11-12T03:02:01.516Z,1036.86
2022-11-12T03:03:01.523Z,1036.89
2022-11-12T03:04:01.523Z,1036.87
2022-11-12T03:05:01.526Z,1036.88
2022-11-12T03:06:01.518Z,1036.88
2022-11-12T03:07:01.548Z,1036.88
2022-11-12T03:08:01.519Z,1036.89
2022-11-12T03:09:01.514Z,1036.89
2022-11-12T03:10:01.529Z,1036.88
2022-11-12T03:11:01.518Z,1036.86
2022-11-12T03:12:01.521Z,1036.89
2022-11-12T03:13:01.518Z,1036.87
2022-11-12T03:14:01.515Z,1036.87
2022-11-12T03:15:01.527Z,1036.84
2022-11-12T03:16:01.515Z,1036.87
2022-11-12T03:17:01.550Z,1036.84
2022-11-12T03:18:01.509Z,1036.89
2022-11-12T03:19:01.523Z,1036.89
2022-11-12T03:20:01.564Z,1036.88
2022-11-12T03:21:01.509Z,1036.87
2022-11-12T03:22:01.521Z,1036.86
2022-11-12T03:23:01.513Z,1036.9
2022-11-12T03:24:01.517Z,1036.88
2022-11-12T03:25:01.536Z,1036.9
2022-11-12T03:26:01.505Z,1036.89
2022-11-12T03:27:01.530Z,1036.89
2022-11-12T03:28:01.516Z,1036.86
2022-11-12T03:29:01.520Z,1036.91
2022-11-12T03:30:01.516Z,1036.91
2022-11-12T03:31:01.510Z,1036.91
2022-11-12T03:32:01.511Z,1036.87
2022-11-12T03:33:01.512Z,1036.88
2022-11-12T03:34:01.498Z,1036.88
2022-11-12T03:35:01.530Z,1036.87
2022-11-12T03:36:01.518Z,1036.83
2022-11-12T03:37:01.518Z,1036.84
2022-11-12T03:38:01.509Z,1036.8
2022-11-12T03:39:01.512Z,1036.8
2022-11-12T03:40:01.535Z,1036.79
2022-11-12T03:41:01.511Z,1036.77
2022-11-12T03:42:01.524Z,1036.78
2022-11-12T03:43:01.518Z,1036.78
2022-11-12T03:44:01.513Z,1036.83
2022-11-12T03:45:01.533Z,1036.78
2022-11-12T03:46:01.516Z,1036.74
2022-11-12T03:47:01.517Z,1036.83
2022-11-12T03:48:01.513Z,1036.75
2022-11-12T03:49:01.499Z,1036.78
2022-11-12T03:50:01.525Z,1036.77
2022-11-12T03:51:01.514Z,1036.77
2022-11-12T03:52:01.495Z,1036.84
2022-11-12T03:53:01.497Z,1036.76
2022-11-12T03:54:01.503Z,1036.79
2022-11-12T03:55:01.510Z,1036.79
2022-11-12T03:56:01.583Z,1036.8
2022-11-12T03:57:01.517Z,1036.77
2022-11-12T03:58:01.498Z,1036.8
2022-11-12T03:59:01.494Z,1036.82
2022-11-12T04:00:01.545Z,1036.86
2022-11-12T04:01:01.551Z,1036.86
2022-11-12T04:02:01.493Z,1036.83
2022-11-12T04:03:01.492Z,1036.83
2022-11-12T04:04:01.504Z,1036.82
2022-11-12T04:05:01.507Z,1036.83
2022-11-12T04:06:01.499Z,1036.84
2022-11-12T04:07:01.538Z,1036.86
2022-11-12T04:08:01.493Z,1036.89
2022-11-12T04:09:01.520Z,1036.89
2022-11-12T04:10:01.510Z,1036.85
2022-11-12T04:11:01.494Z,1036.83
2022-11-12T04:12:01.517Z,1036.83
2022-11-12T04:13:01.493Z,1036.86
2022-11-12T04:14:01.495Z,1036.84
2022-11-12T04:15:01.548Z,1036.83
2022-11-12T04:16:01.517Z,1036.83
2022-11-12T04:17:01.528Z,1036.84
2022-11-12T04:18:01.520Z,1036.86
2022-11-12T04:19:01.534Z,1036.89
2022-11-12T04:20:01.624Z,1036.86
2022-11-12T04:21:01.510Z,1036.84
2022-11-12T04:22:01.518Z,1036.91
2022-11-12T04:23:01.507Z,1036.92
2022-11-12T04:24:01.519Z,1036.89
2022-11-12T04:25:01.552Z,1036.89
2022-11-12T04:26:01.508Z,1036.9
2022-11-12T04:27:01.542Z,1036.89
2022-11-12T04:28:01.509Z,1036.92
2022-11-12T04:29:01.519Z,1036.88
2022-11-12T04:30:01.545Z,1036.89
2022-11-12T04:31:01.503Z,1036.89
2022-11-12T04:32:01.528Z,1036.87
2022-11-12T04:33:01.594Z,1036.86
2022-11-12T04:34:01.519Z,1036.87
2022-11-12T04:35:01.692Z,1036.89
2022-11-12T04:36:01.514Z,1036.85
2022-11-12T04:37:01.514Z,1036.8
2022-11-12T04:38:01.520Z,1036.82
2022-11-12T04:39:01.513Z,1036.84
2022-11-12T04:40:01.526Z,1036.84
2022-11-12T04:41:01.508Z,1036.84
2022-11-12T04:42:01.533Z,1036.82
2022-11-12T04:43:01.517Z,1036.85
2022-11-12T04:44:01.504Z,1036.79
2022-11-12T04:45:01.549Z,1036.8
2022-11-12T04:46:01.494Z,1036.75
2022-11-12T04:47:01.518Z,1036.8
2022-11-12T04:48:01.509Z,1036.78
2022-11-12T04:49:01.519Z,1036.75
2022-11-12T04:50:01.527Z,1036.78
2022-11-12T04:51:01.512Z,1036.78
2022-11-12T04:52:01.515Z,1036.75
2022-11-12T04:53:01.511Z,1036.76
2022-11-12T04:54:01.521Z,1036.78
2022-11-12T04:55:01.532Z,1036.78
2022-11-12T04:56:01.515Z,1036.79
2022-11-12T04:57:01.543Z,1036.84
2022-11-12T04:58:01.526Z,1036.79
2022-11-12T04:59:01.523Z,1036.78
2022-11-12T05:00:01.518Z,1036.72
2022-11-12T05:01:01.598Z,1036.72
2022-11-12T05:02:01.516Z,1036.77
2022-11-12T05:03:01.515Z,1036.77
2022-11-12T05:04:01.497Z,1036.76
2022-11-12T05:05:01.510Z,1036.77
2022-11-12T05:06:01.493Z,1036.77
2022-11-12T05:07:01.598Z,1036.76
2022-11-12T05:08:01.512Z,1036.8
2022-11-12T05:09:01.505Z,1036.8
2022-11-12T05:10:01.512Z,1036.76
2022-11-12T05:11:01.504Z,1036.76
2022-11-12T05:12:01.525Z,1036.76
2022-11-12T05:13:01.498Z,1036.74
2022-11-12T05:14:01.500Z,1036.74
2022-11-12T05:15:01.514Z,1036.75
2022-11-12T05:16:01.498Z,1036.79
2022-11-12T05:17:01.503Z,1036.75
2022-11-12T05:18:01.493Z,1036.79
2022-11-12T05:19:01.494Z,1036.76
2022-11-12T05:20:01.611Z,1036.82
2022-11-12T05:21:01.502Z,1036.78
2022-11-12T05:22:01.494Z,1036.78
2022-11-12T05:23:07.771Z,1036.82
2022-11-12T05:24:01.503Z,1036.79
2022-11-12T05:25:01.511Z,1036.79
2022-11-12T05:26:01.500Z,1036.84
2022-11-12T05:27:01.509Z,1036.82
2022-11-12T05:28:01.497Z,1036.76
2022-11-12T05:29:04.965Z,1036.82
2022-11-12T05:30:01.523Z,1036.84
2022-11-12T05:31:01.517Z,1036.85
2022-11-12T05:32:01.514Z,1036.84
2022-11-12T05:33:01.518Z,1036.83
2022-11-12T05:34:01.505Z,1036.83
2022-11-12T05:35:01.533Z,1036.78
2022-11-12T05:36:01.518Z,1036.86
2022-11-12T05:37:01.505Z,1036.85
2022-11-12T05:38:01.517Z,1036.83
2022-11-12T05:39:01.507Z,1036.83
2022-11-12T05:40:01.514Z,1036.86
2022-11-12T05:41:01.561Z,1036.84
2022-11-12T05:43:01.515Z,1036.87
2022-11-12T05:44:01.514Z,1036.92
2022-11-12T05:45:01.527Z,1036.88
2022-11-12T05:46:01.507Z,1036.89
2022-11-12T05:47:01.519Z,1036.94
2022-11-12T05:48:01.513Z,1036.95
2022-11-12T05:49:01.518Z,1036.97
2022-11-12T05:50:01.525Z,1036.96
2022-11-12T05:51:12.863Z,1036.98
2022-11-12T05:52:01.515Z,1036.99
2022-11-12T05:53:01.513Z,1037.02
2022-11-12T05:54:01.515Z,1037.06
2022-11-12T05:55:01.523Z,1037.06
2022-11-12T05:56:01.510Z,1037.09
2022-11-12T05:57:01.539Z,1037.09
2022-11-12T05:58:01.507Z,1037.17
2022-11-12T05:59:01.510Z,1037.19
2022-11-12T06:00:01.516Z,1037.17
2022-11-12T06:01:01.549Z,1037.17
2022-11-12T06:02:01.549Z,1037.2
2022-11-12T06:03:01.516Z,1037.17
2022-11-12T06:04:01.511Z,1037.16
2022-11-12T06:05:01.530Z,1037.15
2022-11-12T06:06:01.513Z,1037.18
2022-11-12T06:07:01.561Z,1037.23
2022-11-12T06:08:01.525Z,1037.23
2022-11-12T06:09:01.525Z,1037.23
2022-11-12T06:10:01.518Z,1037.21
2022-11-12T06:11:01.522Z,1037.21
2022-11-12T06:12:01.621Z,1037.23
2022-11-12T06:13:01.522Z,1037.23
2022-11-12T06:14:01.510Z,1037.2
2022-11-12T06:15:01.567Z,1037.25
2022-11-12T06:16:01.515Z,1037.31
2022-11-12T06:17:01.508Z,1037.31
2022-11-12T06:18:01.519Z,1037.34
2022-11-12T06:19:01.505Z,1037.34
2022-11-12T06:20:01.526Z,1037.29
2022-11-12T06:21:01.490Z,1037.29
2022-11-12T06:22:01.501Z,1037.32
2022-11-12T06:23:01.500Z,1037.32
2022-11-12T06:24:01.500Z,1037.36
2022-11-12T06:25:01.510Z,1037.35
2022-11-12T06:26:01.507Z,1037.34
2022-11-12T06:27:01.510Z,1037.4
2022-11-12T06:28:01.500Z,1037.37
2022-11-12T06:29:01.496Z,1037.36
2022-11-12T06:30:01.510Z,1037.36
2022-11-12T06:31:01.493Z,1037.37
2022-11-12T06:32:01.502Z,1037.39
2022-11-12T06:33:01.492Z,1037.35
2022-11-12T06:34:01.498Z,1037.33
2022-11-12T06:35:01.514Z,1037.37
2022-11-12T06:36:01.499Z,1037.37
2022-11-12T06:37:01.503Z,1037.31
2022-11-12T06:38:01.501Z,1037.32
2022-11-12T06:39:01.505Z,1037.36
2022-11-12T06:40:01.512Z,1037.35
2022-11-12T06:41:01.495Z,1037.35
2022-11-12T06:42:01.514Z,1037.35
2022-11-12T06:43:01.513Z,1037.38
2022-11-12T06:44:01.513Z,1037.36
2022-11-12T06:45:01.516Z,1037.38
2022-11-12T06:46:01.509Z,1037.35
2022-11-12T06:47:01.526Z,1037.43
2022-11-12T06:48:01.514Z,1037.43
2022-11-12T06:49:01.516Z,1037.42
2022-11-12T06:50:01.508Z,1037.42
2022-11-12T06:51:01.507Z,1037.44
2022-11-12T06:52:01.513Z,1037.41
2022-11-12T06:53:01.502Z,1037.39
2022-11-12T06:54:01.518Z,1037.4
2022-11-12T06:55:01.527Z,1037.37
2022-11-12T06:56:01.510Z,1037.4
2022-11-12T06:57:01.527Z,1037.34
2022-11-12T06:58:01.520Z,1037.32
2022-11-12T06:59:01.510Z,1037.37
2022-11-12T07:00:01.513Z,1037.35
2022-11-12T07:01:01.509Z,1037.33
2022-11-12T07:02:01.587Z,1037.34
2022-11-12T07:03:01.513Z,1037.35
2022-11-12T07:04:01.509Z,1037.33
2022-11-12T07:05:01.534Z,1037.29
2022-11-12T07:06:01.540Z,1037.28
2022-11-12T07:07:01.574Z,1037.26
2022-11-12T07:08:01.515Z,1037.29
2022-11-12T07:09:01.515Z,1037.29
2022-11-12T07:10:01.518Z,1037.24
2022-11-12T07:11:01.515Z,1037.2
2022-11-12T07:12:01.521Z,1037.2
2022-11-12T07:13:01.508Z,1037.16
2022-11-12T07:14:01.508Z,1037.19
2022-11-12T07:15:01.541Z,1037.18
2022-11-12T07:16:01.514Z,1037.21
2022-11-12T07:17:01.509Z,1037.16
2022-11-12T07:18:01.519Z,1037.19
2022-11-12T07:19:01.493Z,1037.23
2022-11-12T07:20:03.836Z,1037.19
2022-11-12T07:21:01.511Z,1037.2
2022-11-12T07:22:01.513Z,1037.24
2022-11-12T07:23:01.508Z,1037.23
2022-11-12T07:24:01.517Z,1037.21
2022-11-12T07:25:01.525Z,1037.23
2022-11-12T07:26:01.512Z,1037.22
2022-11-12T07:27:01.523Z,1037.22
2022-11-12T07:28:01.524Z,1037.23
2022-11-12T07:29:01.520Z,1037.18
2022-11-12T07:30:01.563Z,1037.18
2022-11-12T07:31:01.505Z,1037.21
2022-11-12T07:32:01.609Z,1037.16
2022-11-12T07:33:01.498Z,1037.18
2022-11-12T07:34:01.493Z,1037.13
2022-11-12T07:35:01.512Z,1037.13
2022-11-12T07:36:01.492Z,1037.2
2022-11-12T07:37:01.491Z,1037.19
2022-11-12T07:38:01.498Z,1037.14
2022-11-12T07:39:01.498Z,1037.12
2022-11-12T07:40:01.512Z,1037.12
2022-11-12T07:41:01.498Z,1037.05
2022-11-12T07:42:01.523Z,1037.09
2022-11-12T07:43:01.497Z,1037.07
2022-11-12T07:44:01.493Z,1036.98
2022-11-12T07:45:01.515Z,1036.99
2022-11-12T07:46:06.101Z,1036.98
2022-11-12T07:47:01.500Z,1036.98
2022-11-12T07:48:01.498Z,1036.95
2022-11-12T07:49:01.503Z,1036.93
2022-11-12T07:50:01.528Z,1036.97
2022-11-12T07:51:01.494Z,1036.95
2022-11-12T07:52:01.517Z,1036.98
2022-11-12T07:53:01.500Z,1036.95
2022-11-12T07:54:01.519Z,1036.97
2022-11-12T07:55:01.513Z,1036.93
2022-11-12T07:56:01.517Z,1036.93
2022-11-12T07:57:01.528Z,1036.91
2022-11-12T07:58:01.515Z,1036.92
2022-11-12T07:59:01.509Z,1036.92
2022-11-12T08:00:01.531Z,1036.9
2022-11-12T08:01:01.556Z,1036.89
2022-11-12T08:02:01.516Z,1036.9
2022-11-12T08:03:01.596Z,1036.9
2022-11-12T08:04:01.526Z,1036.88
2022-11-12T08:05:01.521Z,1036.93
2022-11-12T08:06:01.509Z,1036.87
2022-11-12T08:07:01.668Z,1036.88
2022-11-12T08:08:01.667Z,1036.85
2022-11-12T08:09:01.526Z,1036.85
2022-11-12T08:10:01.531Z,1036.86
2022-11-12T08:11:01.512Z,1036.86
2022-11-12T08:12:01.533Z,1036.84
2022-11-12T08:13:01.522Z,1036.87
2022-11-12T08:14:01.520Z,1036.85
2022-11-12T08:15:01.532Z,1036.87
2022-11-12T08:16:01.526Z,1036.85
2022-11-12T08:17:01.508Z,1036.84
2022-11-12T08:18:01.518Z,1036.87
2022-11-12T08:19:01.523Z,1036.8
2022-11-12T08:20:01.531Z,1036.85
2022-11-12T08:21:01.530Z,1036.86
2022-11-12T08:22:01.520Z,1036.83
2022-11-12T08:23:01.520Z,1036.84
2022-11-12T08:24:01.514Z,1036.88
2022-11-12T08:25:01.534Z,1036.86
2022-11-12T08:26:01.515Z,1036.8
2022-11-12T08:27:01.536Z,1036.83
2022-11-12T08:28:01.548Z,1036.78
2022-11-12T08:29:06.889Z,1036.77
2022-11-12T08:30:01.535Z,1036.77
2022-11-12T08:31:01.518Z,1036.79
2022-11-12T08:32:01.515Z,1036.76
2022-11-12T08:33:01.516Z,1036.76
2022-11-12T08:34:01.609Z,1036.74
2022-11-12T08:35:01.533Z,1036.74
2022-11-12T08:36:01.507Z,1036.69
2022-11-12T08:37:01.519Z,1036.69
2022-11-12T08:38:01.509Z,1036.71
2022-11-12T08:39:01.509Z,1036.68
2022-11-12T08:40:01.502Z,1036.66
2022-11-12T08:41:01.501Z,1036.71
2022-11-12T08:42:01.537Z,1036.67
2022-11-12T08:43:01.520Z,1036.65
2022-11-12T08:44:07.127Z,1036.65
2022-11-12T08:45:01.537Z,1036.66
2022-11-12T08:46:01.494Z,1036.68
2022-11-12T08:47:01.500Z,1036.64
2022-11-12T08:48:01.506Z,1036.66
2022-11-12T08:49:01.505Z,1036.61
2022-11-12T08:50:01.540Z,1036.57
2022-11-12T08:51:01.502Z,1036.59
2022-11-12T08:52:01.501Z,1036.59
2022-11-12T08:53:01.499Z,1036.54
2022-11-12T08:54:01.509Z,1036.51
2022-11-12T08:55:01.518Z,1036.52
2022-11-12T08:56:01.502Z,1036.52
2022-11-12T08:57:01.519Z,1036.52
2022-11-12T08:58:01.495Z,1036.49
2022-11-12T08:59:06.220Z,1036.52
2022-11-12T09:00:01.521Z,1036.54
2022-11-12T09:01:01.496Z,1036.53
2022-11-12T09:02:01.547Z,1036.56
2022-11-12T09:03:01.501Z,1036.61
2022-11-12T09:04:01.499Z,1036.62
2022-11-12T09:05:01.539Z,1036.62
2022-11-12T09:06:01.495Z,1036.61
2022-11-12T09:07:01.547Z,1036.62
2022-11-12T09:08:01.529Z,1036.63
2022-11-12T09:09:01.505Z,1036.63
2022-11-12T09:10:01.520Z,1036.59
2022-11-12T09:11:01.573Z,1036.55
2022-11-12T09:12:08.210Z,1036.57
2022-11-12T09:13:01.519Z,1036.57
2022-11-12T09:14:01.671Z,1036.61
2022-11-12T09:15:30.710Z,1036.65
2022-11-12T09:16:01.520Z,1036.61
2022-11-12T09:17:01.573Z,1036.57
2022-11-12T09:18:01.517Z,1036.59
2022-11-12T09:19:01.519Z,1036.56
2022-11-12T09:20:01.519Z,1036.56
2022-11-12T09:21:01.517Z,1036.63
2022-11-12T09:22:01.516Z,1036.61
2022-11-12T09:23:01.512Z,1036.59
2022-11-12T09:24:01.516Z,1036.63
2022-11-12T09:25:01.526Z,1036.61
2022-11-12T09:26:01.518Z,1036.61
2022-11-12T09:27:01.531Z,1036.61
2022-11-12T09:28:01.521Z,1036.56
2022-11-12T09:29:01.517Z,1036.61
2022-11-12T09:30:01.507Z,1036.56
2022-11-12T09:31:01.513Z,1036.59
2022-11-12T09:32:01.514Z,1036.52
2022-11-12T09:33:01.521Z,1036.55
2022-11-12T09:34:01.516Z,1036.57
2022-11-12T09:35:01.519Z,1036.51
2022-11-12T09:36:01.519Z,1036.53
2022-11-12T09:37:01.521Z,1036.53
2022-11-12T09:38:01.509Z,1036.53
2022-11-12T09:39:01.514Z,1036.56
2022-11-12T09:40:01.515Z,1036.55
2022-11-12T09:41:01.523Z,1036.55
2022-11-12T09:42:02.248Z,1036.54
2022-11-12T09:43:01.511Z,1036.54
2022-11-12T09:44:01.514Z,1036.5
2022-11-12T09:45:01.529Z,1036.52
2022-11-12T09:46:26.209Z,1036.56
2022-11-12T09:47:01.526Z,1036.56
2022-11-12T09:48:01.507Z,1036.57
2022-11-12T09:49:01.510Z,1036.55
2022-11-12T09:50:01.524Z,1036.59
2022-11-12T09:51:01.525Z,1036.56
2022-11-12T09:52:01.509Z,1036.6
2022-11-12T09:53:01.510Z,1036.59
2022-11-12T09:54:01.577Z,1036.56
2022-11-12T09:55:01.526Z,1036.59
2022-11-12T09:56:01.514Z,1036.59
2022-11-12T09:57:01.516Z,1036.59
2022-11-12T09:58:01.507Z,1036.57
2022-11-12T09:59:01.497Z,1036.56
2022-11-12T10:00:01.517Z,1036.52
2022-11-12T10:01:01.513Z,1036.52
2022-11-12T10:02:01.564Z,1036.55
2022-11-12T10:03:01.498Z,1036.55
2022-11-12T10:04:01.500Z,1036.6
2022-11-12T10:05:01.516Z,1036.61
2022-11-12T10:06:01.501Z,1036.62
2022-11-12T10:07:01.529Z,1036.62
2022-11-12T10:08:01.493Z,1036.57
2022-11-12T10:09:01.494Z,1036.57
2022-11-12T10:10:01.517Z,1036.61
2022-11-12T10:11:01.499Z,1036.66
2022-11-12T10:12:04.425Z,1036.64
2022-11-12T10:13:01.494Z,1036.65
2022-11-12T10:14:01.521Z,1036.65
2022-11-12T10:15:01.516Z,1036.65
2022-11-12T10:16:01.494Z,1036.66
2022-11-12T10:17:01.506Z,1036.68
2022-11-12T10:18:01.498Z,1036.69
2022-11-12T10:19:01.494Z,1036.63
2022-11-12T10:20:01.516Z,1036.63
2022-11-12T10:21:01.500Z,1036.65
2022-11-12T10:22:01.497Z,1036.65
2022-11-12T10:23:01.521Z,1036.61
2022-11-12T10:24:01.517Z,1036.62
2022-11-12T10:25:01.566Z,1036.54
2022-11-12T10:26:01.516Z,1036.56
2022-11-12T10:27:01.530Z,1036.57
2022-11-12T10:28:01.553Z,1036.57
2022-11-12T10:29:01.511Z,1036.59
2022-11-12T10:30:01.514Z,1036.59
2022-11-12T10:31:01.519Z,1036.59
2022-11-12T10:32:01.519Z,1036.54
2022-11-12T10:33:01.523Z,1036.6
2022-11-12T10:34:01.516Z,1036.53
2022-11-12T10:35:01.531Z,1036.55
2022-11-12T10:36:01.507Z,1036.51
2022-11-12T10:37:01.511Z,1036.49
2022-11-12T10:38:01.514Z,1036.49
2022-11-12T10:39:01.507Z,1036.52
2022-11-12T10:40:01.529Z,1036.53
2022-11-12T10:41:03.624Z,1036.52
2022-11-12T10:42:01.523Z,1036.53
2022-11-12T10:43:01.508Z,1036.53
2022-11-12T10:44:01.517Z,1036.53
2022-11-12T10:45:01.527Z,1036.49
2022-11-12T10:46:01.507Z,1036.47
2022-11-12T10:47:01.521Z,1036.47
2022-11-12T10:48:01.512Z,1036.46
2022-11-12T10:49:01.507Z,1036.39
2022-11-12T10:50:01.511Z,1036.37
2022-11-12T10:51:01.513Z,1036.31
2022-11-12T10:52:01.521Z,1036.31
2022-11-12T10:53:01.512Z,1036.3
2022-11-12T10:54:01.521Z,1036.31
2022-11-12T10:55:01.548Z,1036.31
2022-11-12T10:56:01.515Z,1036.28
2022-11-12T10:57:01.530Z,1036.29
2022-11-12T10:58:01.513Z,1036.28
2022-11-12T10:59:01.509Z,1036.25
2022-11-12T11:00:01.529Z,1036.23
2022-11-12T11:01:01.509Z,1036.22
2022-11-12T11:02:01.560Z,1036.22
2022-11-12T11:03:01.517Z,1036.19
2022-11-12T11:04:01.508Z,1036.19
2022-11-12T11:05:01.526Z,1036.18
2022-11-12T11:06:01.508Z,1036.21
2022-11-12T11:07:01.618Z,1036.2
2022-11-12T11:08:01.516Z,1036.19
2022-11-12T11:09:01.512Z,1036.19
2022-11-12T11:10:01.528Z,1036.1
2022-11-12T11:11:01.508Z,1036.1
2022-11-12T11:12:01.526Z,1036.12
2022-11-12T11:13:01.521Z,1036.09
2022-11-12T11:14:01.509Z,1036.1
2022-11-12T11:15:01.542Z,1036.09
2022-11-12T11:16:01.505Z,1036.09
2022-11-12T11:17:01.495Z,1036.13
2022-11-12T11:18:01.506Z,1036.12
2022-11-12T11:19:01.503Z,1036.03
2022-11-12T11:20:01.508Z,1036.07
2022-11-12T11:21:01.492Z,1036.08
2022-11-12T11:22:01.497Z,1036.05
2022-11-12T11:23:01.498Z,1036.04
2022-11-12T11:24:01.498Z,1036.05
2022-11-12T11:25:01.535Z,1036.02
2022-11-12T11:26:01.498Z,1036.07
2022-11-12T11:27:01.524Z,1036.08
2022-11-12T11:28:01.505Z,1036.09
2022-11-12T11:29:01.500Z,1036.05
2022-11-12T11:30:01.540Z,1036.06
2022-11-12T11:31:01.522Z,1036.03
2022-11-12T11:32:01.504Z,1036.03
2022-11-12T11:33:01.499Z,1036.02
2022-11-12T11:34:01.495Z,1036.04
2022-11-12T11:35:01.517Z,1036.01
2022-11-12T11:36:01.496Z,1036.01
2022-11-12T11:37:01.499Z,1036.05
2022-11-12T11:38:01.520Z,1036.02
2022-11-12T11:39:01.499Z,1036.05
2022-11-12T11:40:01.534Z,1036.03
2022-11-12T11:41:01.517Z,1036.06
2022-11-12T11:42:01.529Z,1036.02
2022-11-12T11:43:01.570Z,1036.05
2022-11-12T11:44:01.601Z,1036.02
2022-11-12T11:45:01.519Z,1036.05
2022-11-12T11:46:01.513Z,1036.06
2022-11-12T11:47:01.511Z,1036.06
2022-11-12T11:48:02.475Z,1036.09
2022-11-12T11:49:01.550Z,1036.09
2022-11-12T11:50:01.527Z,1036.13
2022-11-12T11:51:01.524Z,1036.1
2022-11-12T11:52:01.579Z,1036.08
2022-11-12T11:53:01.530Z,1036.13
2022-11-12T11:54:01.530Z,1036.1
2022-11-12T11:55:01.533Z,1036.09
2022-11-12T11:56:01.511Z,1036.13
2022-11-12T11:57:01.524Z,1036.07
2022-11-12T11:58:01.510Z,1036.05
2022-11-12T11:59:01.516Z,1036
2022-11-12T12:00:01.519Z,1036.01
2022-11-12T12:01:01.518Z,1035.99
2022-11-12T12:02:01.514Z,1035.99
2022-11-12T12:03:01.504Z,1036.01
2022-11-12T12:04:01.623Z,1036
2022-11-12T12:05:01.534Z,1035.99
2022-11-12T12:06:01.505Z,1035.97
2022-11-12T12:07:01.545Z,1035.95
2022-11-12T12:08:01.511Z,1035.93